createdAt,value
2018-10-12T00:00:29.495Z,96.84
2018-10-12T00:01:29.586Z,96.75
2018-10-12T00:02:29.678Z,96.94
2018-10-12T00:03:29.770Z,97.03
2018-10-12T00:04:29.865Z,96.56
2018-10-12T00:05:29.955Z,96.66
2018-10-12T00:06:30.050Z,96.66
2018-10-12T00:07:30.141Z,97.13
2018-10-12T00:08:30.235Z,96.94
2018-10-12T00:09:30.329Z,96.46
2018-10-12T00:10:30.422Z,96.94
2018-10-12T00:11:30.517Z,96.84
2018-10-12T00:12:30.610Z,96.17
2018-10-12T00:13:30.702Z,96.37
2018-10-12T00:14:30.795Z,96.66
2018-10-12T00:15:30.887Z,96.46
2018-10-12T00:16:30.981Z,96.75
2018-10-12T00:17:31.075Z,96.08
2018-10-12T00:18:31.162Z,96.66
2018-10-12T00:19:31.259Z,96.27
2018-10-12T00:20:31.354Z,96.08
2018-10-12T00:21:31.448Z,96.46
2018-10-12T00:22:31.545Z,95.89
2018-10-12T00:23:31.642Z,96.17
2018-10-12T00:24:31.737Z,96.08
2018-10-12T00:25:31.831Z,95.98
2018-10-12T00:26:31.921Z,96.08
2018-10-12T00:27:32.018Z,96.27
2018-10-12T00:28:32.110Z,96.37
2018-10-12T00:29:32.204Z,95.98
2018-10-12T00:30:32.292Z,96.08
2018-10-12T00:31:32.391Z,95.98
2018-10-12T00:32:32.487Z,95.61
2018-10-12T00:33:32.578Z,95.79
2018-10-12T00:34:32.672Z,95.51
2018-10-12T00:35:32.768Z,95.70
2018-10-12T00:36:32.871Z,95.70
2018-10-12T00:37:32.963Z,96.17
2018-10-12T00:38:33.058Z,95.98
2018-10-12T00:39:33.152Z,96.17
2018-10-12T00:40:33.240Z,95.98
2018-10-12T00:41:33.336Z,96.17
2018-10-12T00:42:33.429Z,96.17
2018-10-12T00:43:33.521Z,95.98
2018-10-12T00:44:33.613Z,95.98
2018-10-12T00:45:33.710Z,96.17
2018-10-12T00:46:33.799Z,95.89
2018-10-12T00:47:33.893Z,96.17
2018-10-12T00:48:33.997Z,95.79
2018-10-12T00:49:34.114Z,95.89
2018-10-12T00:50:34.183Z,96.08
2018-10-12T00:51:34.275Z,96.17
2018-10-12T00:52:34.368Z,96.17
2018-10-12T00:53:34.463Z,96.08
2018-10-12T00:54:34.556Z,96.08
2018-10-12T00:55:34.651Z,95.98
2018-10-12T00:56:41.936Z,95.70
2018-10-12T00:57:34.784Z,95.89
2018-10-12T00:58:34.876Z,95.61
2018-10-12T00:59:34.968Z,95.98
2018-10-12T01:00:35.061Z,96.17
2018-10-12T01:01:35.153Z,96.08
2018-10-12T01:02:35.246Z,95.98
2018-10-12T01:03:35.336Z,96.08
2018-10-12T01:04:35.429Z,95.89
2018-10-12T01:05:35.521Z,96.27
2018-10-12T01:06:35.631Z,95.98
2018-10-12T01:07:35.713Z,96.08
2018-10-12T01:08:35.796Z,95.89
2018-10-12T01:09:35.888Z,96.46
2018-10-12T01:10:35.983Z,96.75
2018-10-12T01:11:36.075Z,96.66
2018-10-12T01:12:36.169Z,96.94
2018-10-12T01:13:36.267Z,96.84
2018-10-12T01:14:36.359Z,96.84
2018-10-12T01:15:36.449Z,96.37
2018-10-12T01:16:36.540Z,96.37
2018-10-12T01:17:36.634Z,96.17
2018-10-12T01:18:36.748Z,96.46
2018-10-12T01:19:36.834Z,96.84
2018-10-12T01:20:36.930Z,96.84
2018-10-12T01:21:37.042Z,96.75
2018-10-12T01:22:37.131Z,96.37
2018-10-12T01:23:37.222Z,96.84
2018-10-12T01:24:37.320Z,96.84
2018-10-12T01:25:37.412Z,97.03
2018-10-12T01:26:37.503Z,96.37
2018-10-12T01:27:37.596Z,96.27
2018-10-12T01:28:37.692Z,96.66
2018-10-12T01:29:37.777Z,97.13
2018-10-12T01:30:37.871Z,96.84
2018-10-12T01:31:37.966Z,96.84
2018-10-12T01:32:38.064Z,96.66
2018-10-12T01:33:38.154Z,96.66
2018-10-12T01:34:38.265Z,96.66
2018-10-12T01:35:38.361Z,96.84
2018-10-12T01:36:38.446Z,97.03
2018-10-12T01:37:38.541Z,96.84
2018-10-12T01:38:38.637Z,96.66
2018-10-12T01:39:38.729Z,96.46
2018-10-12T01:40:38.822Z,96.84
2018-10-12T01:41:38.911Z,96.94
2018-10-12T01:42:39.009Z,97.03
2018-10-12T01:43:39.099Z,97.13
2018-10-12T01:44:39.190Z,97.03
2018-10-12T01:45:39.283Z,96.94
2018-10-12T01:46:39.376Z,96.66
2018-10-12T01:47:39.481Z,96.84
2018-10-12T01:48:39.576Z,96.75
2018-10-12T01:49:39.667Z,97.13
2018-10-12T01:50:39.765Z,97.32
2018-10-12T01:51:39.856Z,97.13
2018-10-12T01:52:39.950Z,97.23
2018-10-12T01:53:40.057Z,97.61
2018-10-12T01:54:40.139Z,97.42
2018-10-12T01:55:40.233Z,97.61
2018-10-12T01:56:40.325Z,98.37
2018-10-12T01:57:40.419Z,97.99
2018-10-12T01:58:40.515Z,98.18
2018-10-12T01:59:40.606Z,97.99
2018-10-12T02:00:40.698Z,98.18
2018-10-12T02:01:40.793Z,98.18
2018-10-12T02:02:40.887Z,98.28
2018-10-12T02:03:40.977Z,98.18
2018-10-12T02:04:41.070Z,97.99
2018-10-12T02:05:41.169Z,98.18
2018-10-12T02:06:41.258Z,98.18
2018-10-12T02:07:41.388Z,97.99
2018-10-12T02:08:41.441Z,97.89
2018-10-12T02:09:41.531Z,97.99
2018-10-12T02:10:41.624Z,98.18
2018-10-12T02:11:41.715Z,98.28
2018-10-12T02:12:41.813Z,98.28
2018-10-12T02:13:41.907Z,97.42
2018-10-12T02:14:41.996Z,97.52
2018-10-12T02:15:42.090Z,97.89
2018-10-12T02:16:42.188Z,97.23
2018-10-12T02:17:42.280Z,96.94
2018-10-12T02:18:42.374Z,96.84
2018-10-12T02:19:42.469Z,96.66
2018-10-12T02:20:42.585Z,96.84
2018-10-12T02:21:42.649Z,96.84
2018-10-12T02:22:42.739Z,96.66
2018-10-12T02:23:42.838Z,96.56
2018-10-12T02:24:42.927Z,97.03
2018-10-12T02:25:43.018Z,96.94
2018-10-12T02:26:43.120Z,96.84
2018-10-12T02:27:43.206Z,96.66
2018-10-12T02:28:43.299Z,97.23
2018-10-12T02:29:43.389Z,97.61
2018-10-12T02:30:43.483Z,97.42
2018-10-12T02:31:43.573Z,97.32
2018-10-12T02:32:43.663Z,97.27
2018-10-12T02:33:43.767Z,97.56
2018-10-12T02:34:43.852Z,97.18
2018-10-12T02:35:43.943Z,97.85
2018-10-12T02:36:44.025Z,97.56
2018-10-12T02:37:44.133Z,97.18
2018-10-12T02:38:44.224Z,97.27
2018-10-12T02:39:44.307Z,98.23
2018-10-12T02:40:44.398Z,97.94
2018-10-12T02:41:44.491Z,98.23
2018-10-12T02:42:44.581Z,97.94
2018-10-12T02:43:44.676Z,98.23
2018-10-12T02:44:44.772Z,98.13
2018-10-12T02:45:44.861Z,97.94
2018-10-12T02:46:44.953Z,98.13
2018-10-12T02:47:45.049Z,98.32
2018-10-12T02:48:45.141Z,98.03
2018-10-12T02:49:45.233Z,97.85
2018-10-12T02:50:45.329Z,98.23
2018-10-12T02:51:45.420Z,98.52
2018-10-12T02:52:45.509Z,98.52
2018-10-12T02:53:45.603Z,98.18
2018-10-12T02:54:45.701Z,97.99
2018-10-12T02:55:45.791Z,98.37
2018-10-12T02:56:45.884Z,98.18
2018-10-12T02:57:45.985Z,99.04
2018-10-12T02:58:46.064Z,98.85
2018-10-12T02:59:46.151Z,98.56
2018-10-12T03:00:46.254Z,98.66
2018-10-12T03:01:46.346Z,98.94
2018-10-12T03:02:46.438Z,99.13
2018-10-12T03:03:46.527Z,99.04
2018-10-12T03:04:46.625Z,99.23
2018-10-12T03:05:46.725Z,99.52
2018-10-12T03:06:46.812Z,98.94
2018-10-12T03:07:46.909Z,99.42
2018-10-12T03:08:46.995Z,99.23
2018-10-12T03:09:47.089Z,98.94
2018-10-12T03:10:47.185Z,99.23
2018-10-12T03:11:47.276Z,98.94
2018-10-12T03:12:47.375Z,99.04
2018-10-12T03:13:47.458Z,99.04
2018-10-12T03:14:47.556Z,99.04
2018-10-12T03:15:47.644Z,98.66
2018-10-12T03:16:47.742Z,98.66
2018-10-12T03:17:47.842Z,98.75
2018-10-12T03:18:47.932Z,98.70
2018-10-12T03:19:48.025Z,99.18
2018-10-12T03:20:48.123Z,98.94
2018-10-12T03:21:48.221Z,99.18
2018-10-12T03:22:48.306Z,99.18
2018-10-12T03:23:48.394Z,98.90
2018-10-12T03:24:48.478Z,99.37
2018-10-12T03:25:48.570Z,98.99
2018-10-12T03:26:48.663Z,99.18
2018-10-12T03:27:48.756Z,99.56
2018-10-12T03:28:48.846Z,99.56
2018-10-12T03:29:48.940Z,99.66
2018-10-12T03:30:49.035Z,99.46
2018-10-12T03:31:49.125Z,99.75
2018-10-12T03:32:49.219Z,99.66
2018-10-12T03:33:49.309Z,99.75
2018-10-12T03:34:49.404Z,99.46
2018-10-12T03:35:49.494Z,99.95
2018-10-12T03:36:49.582Z,99.66
2018-10-12T03:37:49.677Z,99.56
2018-10-12T03:38:49.768Z,99.66
2018-10-12T03:39:49.853Z,99.75
2018-10-12T03:40:49.954Z,99.75
2018-10-12T03:41:50.045Z,99.56
2018-10-12T03:42:50.162Z,99.85
2018-10-12T03:43:50.227Z,99.18
2018-10-12T03:44:50.325Z,98.70
2018-10-12T03:45:50.411Z,99.18
2018-10-12T03:46:50.499Z,99.56
2018-10-12T03:47:50.594Z,99.75
2018-10-12T03:48:50.685Z,99.66
2018-10-12T03:49:50.802Z,99.66
2018-10-12T03:50:50.880Z,99.18
2018-10-12T03:51:51.019Z,99.46
2018-10-12T03:52:51.080Z,99.66
2018-10-12T03:53:51.171Z,99.56
2018-10-12T03:54:51.259Z,99.37
2018-10-12T03:55:51.353Z,99.66
2018-10-12T03:56:51.439Z,99.56
2018-10-12T03:57:51.542Z,99.18
2018-10-12T04:00:34.195Z,99.70
2018-10-12T04:01:34.273Z,99.56
2018-10-12T04:04:16.911Z,99.89
2018-10-12T04:05:17.011Z,99.56
2018-10-12T04:06:17.127Z,99.04
2018-10-12T04:07:17.229Z,99.04
2018-10-12T04:08:17.343Z,98.75
2018-10-12T04:09:17.446Z,99.04
2018-10-12T04:10:17.536Z,99.04
2018-10-12T04:11:17.634Z,98.75
2018-10-12T04:12:17.718Z,99.13
2018-10-12T04:13:17.831Z,98.75
2018-10-12T04:14:17.894Z,99.22
2018-10-12T04:15:17.995Z,99.70
2018-10-12T04:16:18.085Z,99.41
2018-10-12T04:17:18.168Z,99.51
2018-10-12T04:18:18.267Z,99.89
2018-10-12T04:19:18.349Z,99.51
2018-10-12T04:20:18.444Z,99.60
2018-10-12T04:21:18.550Z,99.41
2018-10-12T04:22:18.635Z,99.51
2018-10-12T04:23:18.724Z,99.51
2018-10-12T04:24:18.824Z,99.60
2018-10-12T04:25:18.907Z,99.32
2018-10-12T04:26:18.988Z,99.32
2018-10-12T04:27:19.078Z,99.70
2018-10-12T04:28:19.173Z,99.80
2018-10-12T04:29:19.262Z,99.41
2018-10-12T04:30:19.353Z,99.32
2018-10-12T04:31:19.443Z,99.41
2018-10-12T04:32:19.526Z,99.60
2018-10-12T04:35:02.667Z,99.70
2018-10-12T04:36:02.763Z,99.51
2018-10-12T04:37:02.855Z,99.41
2018-10-12T04:38:02.942Z,99.60
2018-10-12T04:39:03.037Z,99.32
2018-10-12T04:40:03.142Z,99.60
2018-10-12T04:41:03.215Z,99.22
2018-10-12T04:42:03.306Z,99.51
2018-10-12T04:43:03.399Z,98.94
2018-10-12T04:44:03.495Z,99.04
2018-10-12T04:45:03.585Z,98.94
2018-10-12T04:46:03.677Z,98.94
2018-10-12T04:47:03.835Z,98.94
2018-10-12T04:48:03.859Z,99.32
2018-10-12T04:49:03.950Z,98.85
2018-10-12T04:50:04.063Z,98.94
2018-10-12T04:51:04.129Z,99.22
2018-10-12T04:52:04.219Z,98.94
2018-10-12T04:53:04.322Z,98.46
2018-10-12T04:54:04.399Z,98.94
2018-10-12T04:55:04.508Z,98.75
2018-10-12T04:56:04.600Z,98.46
2018-10-12T04:57:04.690Z,99.04
2018-10-12T04:58:04.783Z,98.18
2018-10-12T04:59:04.874Z,98.08
2018-10-12T05:00:04.965Z,98.85
2018-10-12T05:01:05.054Z,98.51
2018-10-12T05:02:05.139Z,98.36
2018-10-12T05:03:05.237Z,98.85
2018-10-12T05:04:05.327Z,98.94
2018-10-12T05:05:05.418Z,98.65
2018-10-12T05:06:05.508Z,98.56
2018-10-12T05:07:05.587Z,98.36
2018-10-12T05:08:05.692Z,98.60
2018-10-12T05:09:05.792Z,98.60
2018-10-12T05:10:05.880Z,98.94
2018-10-12T05:11:05.973Z,98.75
2018-10-12T05:12:06.067Z,98.08
2018-10-12T05:13:06.156Z,98.79
2018-10-12T05:14:06.253Z,98.79
2018-10-12T05:15:13.472Z,98.60
2018-10-12T05:16:06.439Z,98.89
2018-10-12T05:17:06.530Z,98.41
2018-10-12T05:18:06.622Z,98.60
2018-10-12T05:19:13.845Z,98.70
2018-10-12T05:20:06.810Z,98.70
2018-10-12T05:21:06.902Z,98.89
2018-10-12T05:22:14.208Z,98.89
2018-10-12T05:23:07.094Z,98.70
2018-10-12T05:24:14.328Z,98.60
2018-10-12T05:25:14.420Z,98.79
2018-10-12T05:26:07.378Z,98.79
2018-10-12T05:27:07.487Z,98.70
2018-10-12T05:28:07.574Z,98.79
2018-10-12T05:29:07.682Z,98.60
2018-10-12T05:30:07.776Z,98.89
2018-10-12T05:31:07.857Z,98.89
2018-10-12T05:32:07.951Z,98.60
2018-10-12T05:33:08.041Z,98.79
2018-10-12T05:34:08.130Z,98.89
2018-10-12T05:35:08.224Z,98.70
2018-10-12T05:36:08.409Z,98.60
2018-10-12T05:37:08.396Z,98.79
2018-10-12T05:38:08.481Z,98.89
2018-10-12T05:39:08.586Z,98.60
2018-10-12T05:40:08.674Z,98.70
2018-10-12T05:41:08.765Z,98.60
2018-10-12T05:42:08.858Z,98.60
2018-10-12T05:43:08.990Z,98.22
2018-10-12T05:44:09.041Z,98.51
2018-10-12T05:45:09.134Z,98.70
2018-10-12T05:46:09.225Z,98.79
2018-10-12T05:47:09.314Z,98.89
2018-10-12T05:48:09.412Z,98.03
2018-10-12T05:49:09.502Z,98.22
2018-10-12T05:50:09.589Z,98.13
2018-10-12T05:51:09.681Z,98.41
2018-10-12T05:52:17.406Z,98.89
2018-10-12T05:53:17.030Z,98.99
2018-10-12T05:54:09.996Z,98.99
2018-10-12T05:55:17.233Z,99.08
2018-10-12T05:56:10.200Z,99.27
2018-10-12T05:57:10.291Z,99.27
2018-10-12T05:58:10.388Z,98.99
2018-10-12T05:59:10.471Z,99.27
2018-10-12T06:00:10.571Z,99.08
2018-10-12T06:01:10.686Z,98.60
2018-10-12T06:02:10.753Z,98.79
2018-10-12T06:03:10.844Z,99.08
2018-10-12T06:04:10.935Z,98.60
2018-10-12T06:05:11.025Z,98.22
2018-10-12T06:06:11.119Z,98.51
2018-10-12T06:07:11.233Z,98.51
2018-10-12T06:08:11.326Z,98.41
2018-10-12T06:09:11.418Z,98.89
2018-10-12T06:10:11.594Z,98.70
2018-10-12T06:11:11.650Z,98.41
2018-10-12T06:12:18.829Z,98.79
2018-10-12T06:13:11.798Z,98.89
2018-10-12T06:14:19.023Z,98.89
2018-10-12T06:15:19.166Z,98.60
2018-10-12T06:16:12.097Z,98.89
2018-10-12T06:17:12.189Z,98.89
2018-10-12T06:18:19.408Z,98.32
2018-10-12T06:19:19.512Z,98.70
2018-10-12T06:20:19.611Z,98.79
2018-10-12T06:21:19.712Z,98.99
2018-10-12T06:22:19.831Z,98.70
2018-10-12T06:23:12.817Z,98.89
2018-10-12T06:24:12.894Z,98.60
2018-10-12T06:25:12.990Z,98.13
2018-10-12T06:26:13.075Z,98.32
2018-10-12T06:27:13.168Z,98.36
2018-10-12T06:28:13.258Z,98.27
2018-10-12T06:29:13.351Z,98.36
2018-10-12T06:30:13.445Z,98.13
2018-10-12T06:31:13.535Z,98.18
2018-10-12T06:32:13.616Z,98.36
2018-10-12T06:33:13.706Z,98.36
2018-10-12T06:34:13.804Z,98.36
2018-10-12T06:35:13.897Z,97.70
2018-10-12T06:36:13.989Z,98.27
2018-10-12T06:37:14.084Z,97.99
2018-10-12T06:38:14.194Z,97.89
2018-10-12T06:39:14.281Z,98.18
2018-10-12T06:40:14.373Z,97.99
2018-10-12T06:41:14.483Z,98.08
2018-10-12T06:42:14.555Z,98.18
2018-10-12T06:43:14.660Z,98.08
2018-10-12T06:44:14.748Z,98.27
2018-10-12T06:45:14.825Z,97.80
2018-10-12T06:46:14.932Z,97.03
2018-10-12T06:47:15.008Z,97.41
2018-10-12T06:48:15.100Z,97.22
2018-10-12T06:49:15.191Z,97.70
2018-10-12T06:50:15.283Z,97.66
2018-10-12T06:51:15.375Z,97.46
2018-10-12T06:52:15.472Z,97.75
2018-10-12T06:53:15.561Z,97.46
2018-10-12T06:54:15.653Z,97.27
2018-10-12T06:55:15.741Z,97.17
2018-10-12T06:56:15.835Z,97.27
2018-10-12T06:57:25.143Z,97.27
2018-10-12T06:58:15.988Z,96.89
2018-10-12T06:59:16.074Z,97.37
2018-10-12T07:00:16.164Z,97.27
2018-10-12T07:01:16.248Z,96.80
2018-10-12T07:02:16.342Z,96.98
2018-10-12T07:03:16.433Z,97.08
2018-10-12T07:04:16.530Z,97.17
2018-10-12T07:05:16.625Z,96.89
2018-10-12T07:06:16.715Z,96.98
2018-10-12T07:07:16.807Z,97.03
2018-10-12T07:08:16.899Z,97.22
2018-10-12T07:09:16.997Z,97.03
2018-10-12T07:10:17.089Z,97.22
2018-10-12T07:11:17.181Z,97.42
2018-10-12T07:12:17.299Z,97.89
2018-10-12T07:13:17.396Z,97.80
2018-10-12T07:14:17.482Z,97.89
2018-10-12T07:15:17.574Z,98.08
2018-10-12T07:16:17.665Z,98.47
2018-10-12T07:17:17.754Z,98.85
2018-10-12T07:18:17.846Z,98.85
2018-10-12T07:19:17.951Z,98.94
2018-10-12T07:20:18.032Z,98.27
2018-10-12T07:21:18.123Z,98.18
2018-10-12T07:22:18.214Z,97.80
2018-10-12T07:23:18.312Z,97.89
2018-10-12T07:24:18.403Z,98.08
2018-10-12T07:25:18.497Z,97.32
2018-10-12T07:26:18.589Z,97.37
2018-10-12T07:27:18.686Z,97.37
2018-10-12T07:28:18.786Z,97.56
2018-10-12T07:29:18.870Z,97.08
2018-10-12T07:30:18.962Z,97.56
2018-10-12T07:31:19.065Z,97.08
2018-10-12T07:32:19.151Z,96.98
2018-10-12T07:33:19.239Z,96.89
2018-10-12T07:34:19.334Z,97.18
2018-10-12T07:35:19.631Z,96.80
2018-10-12T07:36:19.523Z,97.23
2018-10-12T07:37:19.676Z,96.66
2018-10-12T07:38:19.707Z,96.94
2018-10-12T07:39:19.802Z,96.56
2018-10-12T07:40:19.902Z,96.27
2018-10-12T07:41:19.987Z,96.17
2018-10-12T07:42:20.105Z,95.61
2018-10-12T07:43:20.176Z,95.98
2018-10-12T07:44:20.270Z,95.89
2018-10-12T07:45:20.364Z,95.27
2018-10-12T07:46:20.455Z,94.79
2018-10-12T07:47:20.595Z,94.98
2018-10-12T07:48:20.648Z,93.93
2018-10-12T07:49:20.735Z,94.31
2018-10-12T07:50:20.831Z,94.02
2018-10-12T07:51:20.920Z,94.12
2018-10-12T07:52:21.015Z,93.98
2018-10-12T07:53:21.168Z,93.65
2018-10-12T07:54:21.201Z,92.93
2018-10-12T07:55:21.294Z,93.12
2018-10-12T07:56:21.388Z,93.60
2018-10-12T07:57:21.476Z,93.12
2018-10-12T07:58:21.569Z,93.21
2018-10-12T07:59:21.663Z,93.31
2018-10-12T08:00:21.857Z,92.74
2018-10-12T08:01:21.861Z,91.97
2018-10-12T08:02:21.949Z,91.97
2018-10-12T08:03:22.039Z,91.59
2018-10-12T08:04:22.143Z,91.78
2018-10-12T08:05:22.239Z,91.49
2018-10-12T08:06:22.429Z,91.39
2018-10-12T08:07:22.422Z,91.11
2018-10-12T08:08:22.517Z,91.11
2018-10-12T08:09:22.615Z,91.35
2018-10-12T08:10:22.707Z,90.96
2018-10-12T08:11:22.804Z,91.16
2018-10-12T08:12:22.895Z,91.06
2018-10-12T08:13:22.988Z,90.87
2018-10-12T08:14:23.081Z,90.77
2018-10-12T08:15:23.177Z,90.20
2018-10-12T08:16:23.273Z,90.48
2018-10-12T08:17:23.363Z,90.48
2018-10-12T08:18:23.455Z,90.01
2018-10-12T08:19:23.553Z,90.01
2018-10-12T08:20:23.698Z,89.91
2018-10-12T08:21:23.741Z,89.81
2018-10-12T08:22:23.834Z,89.95
2018-10-12T08:23:23.925Z,89.29
2018-10-12T08:24:24.023Z,89.19
2018-10-12T08:25:24.115Z,88.81
2018-10-12T08:26:24.208Z,88.90
2018-10-12T08:27:24.302Z,88.04
2018-10-12T08:28:24.400Z,88.43
2018-10-12T08:29:24.494Z,88.23
2018-10-12T08:30:24.577Z,87.99
2018-10-12T08:31:24.721Z,87.41
2018-10-12T08:32:24.777Z,87.23
2018-10-12T08:33:24.874Z,86.55
2018-10-12T08:34:24.966Z,86.84
2018-10-12T08:35:25.061Z,86.69
2018-10-12T08:36:25.211Z,86.17
2018-10-12T08:37:25.261Z,86.21
2018-10-12T08:38:25.343Z,86.31
2018-10-12T08:39:25.439Z,85.74
2018-10-12T08:40:25.530Z,85.83
2018-10-12T08:41:25.616Z,85.74
2018-10-12T08:42:25.719Z,85.25
2018-10-12T08:43:25.818Z,85.45
2018-10-12T08:44:25.910Z,85.64
2018-10-12T08:45:26.011Z,85.39
2018-10-12T08:46:26.100Z,85.21
2018-10-12T08:47:26.193Z,85.11
2018-10-12T08:48:26.289Z,84.63
2018-10-12T08:49:26.381Z,83.48
2018-10-12T08:50:26.474Z,82.90
2018-10-12T08:51:26.567Z,83.04
2018-10-12T08:52:26.664Z,83.04
2018-10-12T08:53:26.756Z,82.46
2018-10-12T08:54:26.849Z,82.27
2018-10-12T08:55:26.958Z,82.56
2018-10-12T08:56:27.051Z,82.37
2018-10-12T08:57:27.143Z,81.89
2018-10-12T08:58:27.237Z,81.79
2018-10-12T08:59:27.330Z,81.84
2018-10-12T09:00:27.429Z,81.64
2018-10-12T09:01:27.523Z,82.12
2018-10-12T09:02:27.623Z,81.93
2018-10-12T09:03:27.710Z,81.84
2018-10-12T09:04:27.800Z,82.03
2018-10-12T09:05:27.895Z,81.93
2018-10-12T09:06:27.991Z,81.54
2018-10-12T09:07:28.085Z,81.68
2018-10-12T09:08:28.181Z,81.30
2018-10-12T09:09:28.298Z,81.59
2018-10-12T09:10:28.395Z,81.30
2018-10-12T09:11:28.483Z,81.01
2018-10-12T09:12:28.591Z,80.24
2018-10-12T09:13:28.655Z,80.43
2018-10-12T09:14:28.739Z,80.05
2018-10-12T09:15:28.833Z,79.61
2018-10-12T09:16:28.990Z,79.13
2018-10-12T09:17:29.032Z,79.13
2018-10-12T09:18:29.116Z,78.55
2018-10-12T09:19:29.214Z,78.11
2018-10-12T09:20:29.423Z,77.63
2018-10-12T09:21:29.403Z,77.06
2018-10-12T09:22:29.585Z,76.67
2018-10-12T09:23:29.548Z,76.67
2018-10-12T09:24:29.650Z,76.29
2018-10-12T09:25:29.739Z,76.29
2018-10-12T09:26:29.844Z,75.90
2018-10-12T09:27:30.042Z,75.52
2018-10-12T09:28:30.001Z,75.46
2018-10-12T09:29:30.258Z,75.46
2018-10-12T09:30:30.199Z,74.88
2018-10-12T09:31:30.283Z,74.21
2018-10-12T09:32:30.376Z,73.63
2018-10-12T09:33:30.472Z,73.73
2018-10-12T09:34:30.573Z,73.83
2018-10-12T09:35:30.704Z,74.30
2018-10-12T09:36:30.804Z,74.15
2018-10-12T09:37:30.838Z,73.77
2018-10-12T09:38:30.945Z,73.38
2018-10-12T09:39:31.057Z,73.19
2018-10-12T09:40:31.163Z,73.00
2018-10-12T09:41:31.260Z,73.19
2018-10-12T09:42:31.358Z,73.19
2018-10-12T09:43:31.452Z,73.19
2018-10-12T09:44:31.552Z,73.19
2018-10-12T09:45:31.644Z,73.38
2018-10-12T09:46:31.741Z,72.90
2018-10-12T09:47:31.835Z,72.74
2018-10-12T09:48:31.926Z,72.94
2018-10-12T09:49:32.027Z,73.22
2018-10-12T09:50:32.198Z,72.45
2018-10-12T09:51:32.223Z,72.84
2018-10-12T09:52:32.323Z,72.84
2018-10-12T09:53:32.422Z,72.17
2018-10-12T09:54:32.515Z,72.94
2018-10-12T09:55:32.606Z,72.68
2018-10-12T09:56:32.701Z,72.68
2018-10-12T09:57:32.798Z,72.39
2018-10-12T09:58:32.901Z,73.07
2018-10-12T09:59:32.997Z,72.68
2018-10-12T10:00:33.092Z,72.78
2018-10-12T10:01:33.186Z,72.68
2018-10-12T10:02:33.282Z,72.72
2018-10-12T10:03:33.381Z,72.33
2018-10-12T10:04:33.478Z,71.85
2018-10-12T10:05:33.581Z,72.24
2018-10-12T10:06:33.681Z,71.76
2018-10-12T10:07:33.795Z,71.37
2018-10-12T10:08:34.048Z,71.66
2018-10-12T10:09:33.981Z,71.66
2018-10-12T10:10:34.081Z,71.89
2018-10-12T10:11:34.178Z,71.79
2018-10-12T10:12:34.283Z,71.89
2018-10-12T10:13:34.384Z,71.79
2018-10-12T10:14:34.475Z,71.89
2018-10-12T10:15:34.663Z,72.47
2018-10-12T10:16:34.684Z,71.98
2018-10-12T10:17:34.763Z,71.70
2018-10-12T10:18:34.861Z,71.73
2018-10-12T10:19:34.960Z,71.54
2018-10-12T10:20:35.067Z,71.64
2018-10-12T10:21:35.151Z,70.96
2018-10-12T10:22:35.284Z,70.76
2018-10-12T10:23:35.348Z,70.76
2018-10-12T10:24:35.453Z,71.44
2018-10-12T10:25:35.539Z,70.86
2018-10-12T10:26:35.636Z,70.76
2018-10-12T10:27:35.734Z,70.61
2018-10-12T10:28:35.837Z,70.42
2018-10-12T10:29:35.940Z,70.61
2018-10-12T10:30:36.036Z,70.32
2018-10-12T10:31:36.136Z,70.32
2018-10-12T10:32:36.229Z,70.16
2018-10-12T10:33:36.330Z,70.36
2018-10-12T10:34:36.426Z,69.87
2018-10-12T10:35:36.839Z,70.16
2018-10-12T10:36:36.639Z,70.16
2018-10-12T10:37:36.734Z,69.10
2018-10-12T10:38:36.833Z,68.81
2018-10-12T10:39:36.930Z,68.43
2018-10-12T10:40:37.031Z,68.71
2018-10-12T10:41:37.120Z,68.71
2018-10-12T10:42:37.218Z,67.94
2018-10-12T10:43:37.324Z,68.91
2018-10-12T10:44:37.463Z,67.97
2018-10-12T10:45:37.506Z,67.97
2018-10-12T10:46:37.610Z,67.88
2018-10-12T10:47:37.708Z,67.59
2018-10-12T10:48:37.809Z,67.78
2018-10-12T10:49:37.919Z,67.30
2018-10-12T10:50:38.022Z,68.26
2018-10-12T10:51:38.113Z,67.59
2018-10-12T10:52:38.215Z,67.97
2018-10-12T10:53:38.347Z,67.52
2018-10-12T10:54:38.406Z,67.82
2018-10-12T10:55:38.527Z,67.33
2018-10-12T10:56:38.616Z,67.52
2018-10-12T10:57:38.720Z,67.04
2018-10-12T10:58:38.829Z,66.46
2018-10-12T10:59:38.937Z,66.36
2018-10-12T11:00:39.047Z,66.85
2018-10-12T11:01:39.135Z,66.75
2018-10-12T11:03:39.326Z,66.66
2018-10-12T11:04:39.426Z,65.98
2018-10-12T11:05:39.543Z,66.56
2018-10-12T11:06:39.631Z,66.66
2018-10-12T11:07:39.727Z,66.56
2018-10-12T11:08:39.827Z,66.08
2018-10-12T11:09:39.926Z,66.11
2018-10-12T11:10:40.026Z,66.50
2018-10-12T11:11:40.133Z,66.59
2018-10-12T11:12:40.362Z,66.88
2018-10-12T11:13:40.337Z,66.88
2018-10-12T11:14:40.442Z,67.08
2018-10-12T11:15:40.537Z,66.20
2018-10-12T11:16:40.636Z,65.92
2018-10-12T11:17:40.741Z,65.05
2018-10-12T11:18:40.840Z,66.05
2018-10-12T11:19:41.053Z,64.69
2018-10-12T11:20:41.039Z,64.59
2018-10-12T11:21:41.137Z,64.69
2018-10-12T11:22:41.237Z,65.17
2018-10-12T11:23:41.338Z,65.17
2018-10-12T11:24:41.449Z,64.98
2018-10-12T11:25:41.541Z,65.17
2018-10-12T11:26:41.660Z,64.69
2018-10-12T11:27:41.740Z,64.59
2018-10-12T11:28:41.839Z,64.98
2018-10-12T11:29:41.941Z,64.21
2018-10-12T11:30:42.050Z,64.40
2018-10-12T11:31:42.150Z,64.31
2018-10-12T11:32:42.306Z,64.50
2018-10-12T11:33:42.350Z,64.59
2018-10-12T11:34:42.458Z,64.21
2018-10-12T11:35:42.554Z,64.11
2018-10-12T11:36:42.654Z,64.40
2018-10-12T11:37:42.768Z,64.59
2018-10-12T11:38:42.865Z,65.20
2018-10-12T11:39:42.967Z,63.46
2018-10-12T11:40:43.067Z,63.46
2018-10-12T11:41:43.165Z,62.69
2018-10-12T11:42:43.262Z,62.88
2018-10-12T11:43:43.365Z,63.18
2018-10-12T11:44:43.527Z,62.69
2018-10-12T11:45:43.586Z,62.59
2018-10-12T11:46:43.718Z,62.92
2018-10-12T11:47:43.822Z,62.88
2018-10-12T11:48:43.921Z,62.21
2018-10-12T11:49:44.026Z,62.11
2018-10-12T11:50:44.120Z,62.04
2018-10-12T11:51:44.222Z,61.85
2018-10-12T11:52:44.324Z,61.82
2018-10-12T11:53:44.425Z,61.56
2018-10-12T11:54:44.525Z,60.98
2018-10-12T11:55:44.628Z,61.27
2018-10-12T11:56:44.728Z,61.08
2018-10-12T11:57:44.831Z,61.36
2018-10-12T11:58:44.934Z,62.14
2018-10-12T11:59:45.035Z,61.66
2018-10-12T12:00:45.148Z,61.46
2018-10-12T12:01:45.234Z,61.08
2018-10-12T12:02:45.335Z,61.08
2018-10-12T12:03:45.441Z,61.85
2018-10-12T12:04:45.539Z,60.98
2018-10-12T12:05:45.642Z,61.18
2018-10-12T12:06:45.742Z,60.30
2018-10-12T12:07:45.843Z,60.98
2018-10-12T12:08:45.945Z,61.76
2018-10-12T12:09:46.036Z,61.11
2018-10-12T12:10:46.145Z,60.88
2018-10-12T12:11:46.245Z,60.30
2018-10-12T12:12:46.350Z,61.08
2018-10-12T12:13:46.517Z,60.78
2018-10-12T12:14:46.549Z,60.24
2018-10-12T12:15:46.646Z,60.24
2018-10-12T12:16:46.754Z,61.08
2018-10-12T12:17:46.854Z,61.11
2018-10-12T12:18:46.953Z,61.11
2018-10-12T12:19:47.045Z,60.91
2018-10-12T12:20:47.161Z,60.04
2018-10-12T12:21:47.261Z,59.94
2018-10-12T12:22:47.364Z,60.04
2018-10-12T12:23:47.464Z,58.88
2018-10-12T12:24:47.566Z,59.17
2018-10-12T12:25:47.668Z,59.46
2018-10-12T12:26:47.772Z,59.75
2018-10-12T12:27:47.876Z,59.66
2018-10-12T12:28:47.971Z,60.14
2018-10-12T12:29:48.097Z,59.94
2018-10-12T12:30:48.198Z,59.46
2018-10-12T12:31:48.298Z,59.84
2018-10-12T12:32:48.400Z,59.84
2018-10-12T12:33:48.504Z,60.07
2018-10-12T12:34:48.760Z,59.59
2018-10-12T12:35:49.096Z,59.84
2018-10-12T12:36:48.817Z,60.17
2018-10-12T12:37:48.920Z,59.69
2018-10-12T12:38:49.021Z,59.36
2018-10-12T12:39:49.125Z,59.10
2018-10-12T12:40:49.220Z,60.27
2018-10-12T12:41:49.357Z,60.33
2018-10-12T12:42:49.416Z,59.56
2018-10-12T12:43:49.520Z,59.27
2018-10-12T12:44:49.621Z,59.20
2018-10-12T12:45:49.749Z,59.07
2018-10-12T12:46:49.820Z,59.27
2018-10-12T12:47:50.004Z,59.59
2018-10-12T12:48:50.396Z,59.66
2018-10-12T12:49:50.121Z,59.00
2018-10-12T12:50:50.223Z,59.00
2018-10-12T12:51:50.347Z,58.52
2018-10-12T12:52:50.422Z,57.62
2018-10-12T12:53:50.571Z,58.14
2018-10-12T12:54:50.732Z,58.52
2018-10-12T12:55:50.722Z,57.84
2018-10-12T12:56:50.828Z,58.14
2018-10-12T12:57:50.935Z,56.87
2018-10-12T12:58:51.037Z,55.90
2018-10-12T12:59:51.135Z,55.83